Time;durP1;ratioP1;P1;durP2;ratioP2;P2;SDS_P1;SDS_P2;PMS_P1;PMS_P2;Temp;Humidity;BMP_temperature;BMP_pressure;BME280_temperature;BME280_humidity;BME280_pressure;Samples;Min_cycle;Max_cycle;Signal;HPM_P1;HPM_P2
2021/05/06 00:02:05;;;;;;;3.77;3.57;;;;;;;1.79;100.00;97569.78;5116642;27;20201;-71
2021/05/06 00:32:26;;;;;;;3.53;3.33;;;;;;;2.14;100.00;97562.78;5121413;27;20666;-71
2021/05/06 00:34:53;;;;;;;3.57;3.37;;;;;;;2.24;100.00;97555.84;5116572;27;20710;-71
2021/05/06 00:37:21;;;;;;;3.63;3.37;;;;;;;2.31;100.00;97554.41;5117156;27;20634;-71
2021/05/06 00:39:53;;;;;;;3.10;2.80;;;;;;;2.30;100.00;97557.97;5110382;27;20274;-71
2021/05/06 00:42:31;;;;;;;3.50;3.20;;;;;;;2.36;100.00;97556.66;5114629;27;20203;-71
2021/05/06 00:59:05;;;;;;;3.63;3.33;;;;;;;2.10;100.00;97545.69;5115289;27;20713;-71
2021/05/06 01:01:43;;;;;;;3.57;3.17;;;;;;;2.17;100.00;97542.44;5119394;27;20221;-71
2021/05/06 01:04:26;;;;;;;3.43;3.13;;;;;;;2.13;100.00;97548.03;5113704;27;20193;-71
2021/05/06 01:07:08;;;;;;;3.67;3.33;;;;;;;2.21;100.00;97542.19;5118099;27;20213;-71
2021/05/06 01:09:40;;;;;;;3.07;2.87;;;;;;;2.19;100.00;97539.72;5115070;27;20211;-71
2021/05/06 01:12:07;;;;;;;3.57;3.30;;;;;;;2.08;100.00;97544.94;5118890;27;20208;-71
2021/05/06 01:14:34;;;;;;;3.03;2.83;;;;;;;2.14;100.00;97536.63;5117903;27;20232;-71
2021/05/06 01:17:01;;;;;;;3.23;2.93;;;;;;;2.25;100.00;97538.38;5118002;27;20538;-71
2021/05/06 01:19:29;;;;;;;2.63;2.40;;;;;;;2.24;100.00;97531.47;5113225;27;20745;-71
2021/05/06 01:21:57;;;;;;;2.97;2.77;;;;;;;2.17;100.00;97533.78;5117296;27;20371;-70
2021/05/06 01:24:25;;;;;;;3.50;2.80;;;;;;;2.21;100.00;97531.72;5114735;27;20197;-71
2021/05/06 01:26:59;;;;;;;3.07;2.87;;;;;;;2.26;100.00;97535.66;5114294;27;20226;-72
2021/05/06 01:29:29;;;;;;;2.90;2.80;;;;;;;2.24;100.00;97541.94;5117063;27;20379;-71
2021/05/06 01:32:05;;;;;;;2.60;2.40;;;;;;;2.22;100.00;97530.78;5116527;27;20297;-71
2021/05/06 01:34:33;;;;;;;2.87;2.67;;;;;;;2.34;100.00;97526.34;5119424;27;20221;-71
2021/05/06 01:37:07;;;;;;;2.73;2.47;;;;;;;2.41;100.00;97533.59;5119678;27;20417;-71
2021/05/06 01:42:17;;;;;;;3.13;2.50;;;;;;;2.57;100.00;97527.94;5112388;27;20288;-71
2021/05/06 01:47:32;;;;;;;2.93;2.33;;;;;;;2.54;100.00;97528.19;5121745;27;20212;-71
2021/05/06 01:50:17;;;;;;;2.73;2.53;;;;;;;2.53;100.00;97529.16;5123104;27;20201;-71
2021/05/06 02:01:12;;;;;;;3.03;2.47;;;;;;;2.60;100.00;97525.06;5042725;28;20227;-70
2021/05/06 02:03:39;;;;;;;5.00;2.47;;;;;;;2.68;100.00;97528.84;5103364;27;21041;-71
2021/05/06 02:06:06;;;;;;;3.37;2.57;;;;;;;2.68;100.00;97528.84;5119195;27;20231;-70
2021/05/06 02:08:34;;;;;;;2.67;2.47;;;;;;;2.68;100.00;97521.00;5121743;27;20232;-71
2021/05/06 02:11:02;;;;;;;3.33;2.53;;;;;;;2.76;100.00;97523.81;5122812;27;20224;-71
2021/05/06 02:13:29;;;;;;;3.37;2.53;;;;;;;2.75;100.00;97514.31;5121454;27;20773;-71
2021/05/06 02:15:58;;;;;;;3.37;2.27;;;;;;;2.72;100.00;97519.78;5122090;27;20621;-71
2021/05/06 02:18:26;;;;;;;2.90;2.70;;;;;;;2.73;100.00;97521.44;5119232;27;20245;-70
2021/05/06 02:20:53;;;;;;;2.30;2.10;;;;;;;2.86;100.00;97522.13;5118396;27;20201;-71
2021/05/06 02:23:21;;;;;;;3.87;2.07;;;;;;;2.74;100.00;97517.88;5119840;27;20658;-70
2021/05/06 02:25:49;;;;;;;2.67;2.47;;;;;;;2.76;100.00;97515.97;5117592;27;20644;-71
2021/05/06 02:28:16;;;;;;;2.30;2.20;;;;;;;2.81;100.00;97513.78;5120102;27;20368;-71
2021/05/06 02:30:43;;;;;;;2.53;2.43;;;;;;;2.81;100.00;97505.94;5119694;27;20211;-71
2021/05/06 02:33:11;;;;;;;3.03;2.67;;;;;;;2.81;100.00;97513.78;5121646;27;20641;-71
2021/05/06 02:35:39;;;;;;;3.00;2.53;;;;;;;2.79;100.00;97510.47;5114852;27;20566;-71
2021/05/06 02:38:07;;;;;;;2.57;2.37;;;;;;;2.88;100.00;97519.34;5121744;27;20207;-71
2021/05/06 02:40:34;;;;;;;2.37;2.27;;;;;;;2.88;100.00;97517.59;5107848;27;20291;-71
2021/05/06 02:43:02;;;;;;;2.57;2.37;;;;;;;2.88;100.00;97509.72;5115418;27;20212;-70
2021/05/06 02:45:29;;;;;;;2.50;2.40;;;;;;;2.85;100.00;97504.75;5117926;27;20201;-71
2021/05/06 02:47:57;;;;;;;3.17;2.47;;;;;;;2.85;100.00;97503.91;5113191;27;20205;-71
2021/05/06 02:50:24;;;;;;;2.83;2.63;;;;;;;2.78;100.00;97513.22;5110713;27;20224;-71
2021/05/06 02:52:59;;;;;;;4.47;2.63;;;;;;;2.71;100.00;97505.88;5114464;27;20204;-71
2021/05/06 02:55:33;;;;;;;2.67;2.30;;;;;;;2.85;100.00;97504.75;5110059;27;20227;-73
2021/05/06 02:58:03;;;;;;;3.30;2.43;;;;;;;2.81;100.00;97505.94;5115593;27;20217;-71
2021/05/06 03:03:15;;;;;;;2.97;2.40;;;;;;;2.81;100.00;97499.88;5115122;27;20213;-71
2021/05/06 03:05:46;;;;;;;3.03;2.20;;;;;;;2.83;100.00;97501.41;5120099;27;20217;-71
2021/05/06 03:08:16;;;;;;;3.00;2.70;;;;;;;2.88;100.00;97508.88;5113020;27;20209;-71
2021/05/06 03:10:58;;;;;;;2.57;2.37;;;;;;;2.76;100.00;97505.50;5113110;27;20201;-71
2021/05/06 03:24:44;;;;;;;2.50;2.30;;;;;;;2.98;100.00;97488.84;5117553;27;20288;-71
2021/05/06 03:27:14;;;;;;;3.00;2.80;;;;;;;2.92;100.00;97493.78;5116909;27;20227;-71
2021/05/06 03:29:51;;;;;;;2.80;2.53;;;;;;;2.89;100.00;97492.22;5114814;27;20695;-71
2021/05/06 03:32:33;;;;;;;2.47;2.27;;;;;;;2.99;100.00;97487.88;5122303;27;20215;-71
2021/05/06 03:43:33;;;;;;;2.77;2.63;;;;;;;2.95;100.00;97486.47;5117464;27;20840;-71
2021/05/06 04:16:59;;;;;;;4.57;2.37;;;;;;;3.22;99.86;97465.94;5117036;27;20740;-66
2021/05/06 04:25:33;;;;;;;2.70;2.60;;;;;;;3.39;99.02;97449.63;5118678;27;20209;-67
2021/05/06 04:28:04;;;;;;;2.40;2.20;;;;;;;3.40;98.66;97439.97;5116404;27;20201;-67
2021/05/06 04:30:45;;;;;;;2.77;2.60;;;;;;;3.48;99.45;97442.78;5118160;27;20451;-67
2021/05/06 04:36:03;;;;;;;5.33;2.33;;;;;;;3.44;97.82;97449.25;5117386;27;20228;-67
2021/05/06 04:38:30;;;;;;;2.97;2.70;;;;;;;3.45;98.21;97449.09;5117118;27;20205;-66
2021/05/06 04:41:13;;;;;;;2.90;2.40;;;;;;;3.66;97.03;97452.63;5118362;27;20268;-67
2021/05/06 04:54:42;;;;;;;2.23;2.13;;;;;;;3.87;92.29;97461.22;5112896;27;20231;-73
2021/05/06 04:57:22;;;;;;;2.53;2.13;;;;;;;3.92;91.70;97473.91;5114603;27;21028;-71
2021/05/06 05:05:20;;;;;;;2.63;2.30;;;;;;;4.32;90.83;97457.25;5117412;27;20208;-71
2021/05/06 05:07:52;;;;;;;3.40;3.07;;;;;;;4.39;89.81;97462.81;5112909;27;20198;-72
2021/05/06 05:10:32;;;;;;;2.57;2.10;;;;;;;4.42;88.45;97457.28;5113442;27;20259;-71
2021/05/06 05:18:47;;;;;;;3.00;2.70;;;;;;;4.69;84.19;97455.75;5117213;27;20204;-70
2021/05/06 05:23:23;;;;;;;3.63;2.57;;;;;;;4.83;85.85;97446.63;5115709;27;20219;-70
2021/05/06 05:24:19;;;;;;;3.03;2.70;;;;;;;4.90;82.77;97447.69;5116241;27;20249;-70
2021/05/06 05:26:48;;;;;;;2.17;2.00;;;;;;;5.15;82.19;97448.06;5120415;27;20371;-71
2021/05/06 05:29:15;;;;;;;2.77;2.40;;;;;;;5.27;84.17;97451.31;5122919;27;20575;-71
2021/05/06 05:31:42;;;;;;;3.17;2.20;;;;;;;5.47;80.56;97459.16;5123359;27;20220;-71
2021/05/06 05:34:21;;;;;;;3.37;2.30;;;;;;;5.70;77.48;97449.06;5125248;27;20273;-71
2021/05/06 05:36:50;;;;;;;3.63;2.00;;;;;;;5.63;77.41;97445.38;5116969;27;20792;-71
2021/05/06 05:39:23;;;;;;;3.50;2.50;;;;;;;5.65;78.18;97444.25;5118226;27;20208;-71
2021/05/06 05:55:38;;;;;;;3.03;2.07;;;;;;;5.79;72.48;97458.69;5118623;27;20489;-70
2021/05/06 05:58:05;;;;;;;2.77;2.50;;;;;;;6.07;73.99;97457.91;5119765;27;20205;-71
2021/05/06 06:00:32;;;;;;;2.87;2.00;;;;;;;6.05;73.41;97454.56;5115862;27;20686;-71
2021/05/06 06:02:59;;;;;;;3.37;2.27;;;;;;;6.03;72.84;97454.72;5122724;27;20208;-71
2021/05/06 06:05:26;;;;;;;2.83;2.20;;;;;;;6.15;73.04;97450.09;5119630;27;20200;-71
2021/05/06 06:07:53;;;;;;;3.77;2.33;;;;;;;5.97;73.54;97451.81;5122297;27;20214;-71
2021/05/06 06:10:20;;;;;;;4.83;2.40;;;;;;;5.92;74.00;97461.00;5117861;27;20645;-71
2021/05/06 06:12:53;;;;;;;4.53;2.80;;;;;;;5.87;72.56;97457.13;5120277;27;20569;-71
2021/05/06 06:15:30;;;;;;;2.53;2.33;;;;;;;5.96;73.58;97461.53;5120824;27;20224;-71
2021/05/06 06:18:09;;;;;;;4.53;2.27;;;;;;;5.92;73.12;97460.19;5117619;27;20204;-71
2021/05/06 06:20:38;;;;;;;3.03;2.30;;;;;;;5.94;72.68;97463.47;5118536;27;20204;-71
2021/05/06 06:23:06;;;;;;;2.43;2.20;;;;;;;6.02;71.63;97471.50;5121223;27;20205;-70
2021/05/06 06:25:33;;;;;;;4.40;2.30;;;;;;;6.11;71.81;97458.41;5115540;27;20227;-71
2021/05/06 06:28:01;;;;;;;2.77;2.27;;;;;;;6.19;71.98;97440.91;5117899;27;20237;-71
2021/05/06 06:30:28;;;;;;;3.27;2.67;;;;;;;6.20;71.89;97447.84;5122383;27;20210;-71
2021/05/06 06:32:57;;;;;;;2.40;2.20;;;;;;;6.29;71.34;97450.53;5115852;27;20211;-71
2021/05/06 06:35:24;;;;;;;2.77;2.40;;;;;;;6.45;71.75;97439.31;5119795;27;20247;-71
2021/05/06 06:37:51;;;;;;;2.33;2.13;;;;;;;6.72;69.19;97443.66;5114869;27;20563;-71
2021/05/06 06:40:18;;;;;;;2.57;2.37;;;;;;;6.46;70.34;97446.25;5120965;27;20291;-71
2021/05/06 06:42:46;;;;;;;5.23;2.87;;;;;;;6.63;70.32;97437.53;5119256;27;20454;-71
2021/05/06 06:45:14;;;;;;;2.67;2.20;;;;;;;6.69;69.93;97443.16;5119974;27;20229;-71
2021/05/06 06:47:42;;;;;;;3.07;2.30;;;;;;;6.73;68.54;97445.31;5117711;27;20816;-71
2021/05/06 06:50:10;;;;;;;2.47;2.30;;;;;;;6.66;67.86;97429.31;5116175;27;20239;-71
2021/05/06 06:52:37;;;;;;;5.53;2.17;;;;;;;6.80;65.19;97435.00;5116586;27;20596;-71
2021/05/06 06:55:05;;;;;;;3.53;2.27;;;;;;;6.80;65.91;97432.38;5118626;27;20243;-71
2021/05/06 06:57:33;;;;;;;2.80;2.17;;;;;;;7.02;66.45;97419.69;5115636;27;20325;-71
2021/05/06 07:00:00;;;;;;;2.70;2.10;;;;;;;7.05;66.31;97425.44;5118823;27;20273;-71
2021/05/06 07:02:28;;;;;;;4.60;2.30;;;;;;;6.96;66.08;97426.38;5119310;27;20204;-71
2021/05/06 07:04:57;;;;;;;2.60;2.10;;;;;;;7.15;65.55;97427.97;5120976;27;20204;-71
2021/05/06 07:07:25;;;;;;;2.17;2.00;;;;;;;7.12;63.90;97433.56;5117678;27;20316;-70
2021/05/06 07:09:52;;;;;;;3.67;2.20;;;;;;;7.27;64.24;97427.69;5120706;27;20312;-71
2021/05/06 07:12:19;;;;;;;2.50;2.27;;;;;;;7.24;62.13;97423.59;5122865;27;20299;-71
2021/05/06 07:14:46;;;;;;;2.87;1.90;;;;;;;7.38;62.06;97408.97;5122342;27;20532;-71
2021/05/06 07:17:13;;;;;;;3.30;2.17;;;;;;;7.54;64.22;97408.22;5120177;27;20221;-71
2021/05/06 07:19:43;;;;;;;2.87;2.20;;;;;;;7.52;61.71;97416.28;5116120;27;20197;-71
2021/05/06 07:22:10;;;;;;;2.03;1.80;;;;;;;7.58;61.71;97424.53;5119391;27;20205;-71
2021/05/06 07:24:40;;;;;;;5.73;2.30;;;;;;;7.63;61.13;97422.25;5117563;27;20201;-71
2021/05/06 07:27:10;;;;;;;1.97;1.87;;;;;;;7.45;61.28;97428.47;5119845;27;20228;-72
2021/05/06 07:29:39;;;;;;;2.03;1.73;;;;;;;7.22;61.28;97426.38;5120466;27;20281;-71
2021/05/06 07:32:09;;;;;;;5.00;2.10;;;;;;;6.96;62.06;97429.00;5120570;27;20567;-72
2021/05/06 07:34:39;;;;;;;6.10;2.50;;;;;;;6.95;62.93;97432.63;5113779;27;20458;-71
2021/05/06 07:37:09;;;;;;;2.37;2.00;;;;;;;6.84;63.36;97428.44;5122474;27;20235;-71
2021/05/06 07:39:38;;;;;;;5.10;2.43;;;;;;;6.99;64.80;97426.06;5114077;27;20196;-72
2021/05/06 07:42:08;;;;;;;2.10;1.90;;;;;;;7.34;63.75;97428.72;5120873;27;20261;-72
2021/05/06 07:44:36;;;;;;;3.33;1.97;;;;;;;7.42;63.00;97417.41;5111887;27;20258;-71
2021/05/06 07:47:12;;;;;;;1.63;1.53;;;;;;;7.53;63.04;97412.66;5119405;27;20555;-71
2021/05/06 07:49:43;;;;;;;3.87;2.63;;;;;;;7.75;61.53;97422.81;5113810;27;20201;-72
2021/05/06 07:52:15;;;;;;;2.93;2.47;;;;;;;7.66;61.69;97412.22;5119181;27;20205;-72
2021/05/06 07:54:54;;;;;;;2.57;2.00;;;;;;;7.45;61.70;97417.06;5120154;27;20221;-71
2021/05/06 07:57:21;;;;;;;3.03;2.00;;;;;;;7.57;63.25;97407.06;5122459;27;20510;-72
2021/05/06 07:59:50;;;;;;;2.10;1.93;;;;;;;7.52;62.00;97407.53;5119583;27;20707;-71
2021/05/06 08:02:17;;;;;;;3.83;2.30;;;;;;;7.56;63.91;97406.25;5120080;27;20205;-72
2021/05/06 08:04:44;;;;;;;2.47;2.27;;;;;;;7.62;63.10;97410.06;5119886;27;21115;-71
2021/05/06 08:07:11;;;;;;;2.67;2.47;;;;;;;7.81;65.03;97406.31;5114867;27;20634;-71
2021/05/06 08:09:39;;;;;;;3.60;3.40;;;;;;;8.04;62.40;97395.97;5119837;27;20724;-71
2021/05/06 08:12:07;;;;;;;2.00;1.90;;;;;;;7.67;62.52;97392.78;5105603;22;20742;-69
2021/05/06 08:14:34;;;;;;;2.27;2.10;;;;;;;7.93;63.79;97386.56;5066589;28;20249;-71
2021/05/06 08:17:03;;;;;;;2.90;2.27;;;;;;;8.38;61.83;97384.47;5061752;28;20403;-70
2021/05/06 08:19:36;;;;;;;2.60;2.03;;;;;;;8.56;61.18;97383.53;5061050;28;20245;-70
2021/05/06 08:22:03;;;;;;;4.87;2.47;;;;;;;8.86;59.87;97380.34;5066263;28;20214;-69
2021/05/06 08:24:30;;;;;;;2.23;2.03;;;;;;;8.78;59.59;97381.16;5061555;28;20246;-71
2021/05/06 08:26:58;;;;;;;2.67;1.90;;;;;;;8.80;59.37;97382.66;5064023;28;20286;-71
2021/05/06 08:29:25;;;;;;;1.63;1.53;;;;;;;8.83;59.14;97379.69;5064026;28;20199;-70
2021/05/06 08:31:54;;;;;;;2.70;2.50;;;;;;;8.50;59.61;97381.50;5069305;28;20373;-71
2021/05/06 08:34:21;;;;;;;2.90;2.40;;;;;;;8.36;60.45;97373.25;5062090;28;20702;-70
2021/05/06 08:36:48;;;;;;;4.47;2.23;;;;;;;8.11;61.98;97381.16;5058621;28;20350;-71
2021/05/06 08:39:15;;;;;;;2.20;1.93;;;;;;;8.14;63.19;97377.38;5065181;28;20303;-73
2021/05/06 08:41:43;;;;;;;3.30;2.27;;;;;;;8.17;63.21;97378.88;5062917;28;20221;-70
2021/05/06 08:44:13;;;;;;;3.20;2.07;;;;;;;7.95;65.06;97378.50;5057388;28;20230;-69
2021/05/06 08:46:47;;;;;;;2.10;1.97;;;;;;;7.79;65.86;97366.94;5061000;28;20199;-71
2021/05/06 08:49:15;;;;;;;2.23;2.13;;;;;;;7.64;67.07;97368.53;5057728;28;20224;-71
2021/05/06 08:51:43;;;;;;;3.30;3.10;;;;;;;7.55;69.37;97365.03;5060406;28;20210;-71
2021/05/06 08:54:10;;;;;;;2.50;2.30;;;;;;;7.57;70.31;97372.78;5060538;28;20223;-72
2021/05/06 08:56:37;;;;;;;2.53;2.37;;;;;;;7.62;71.78;97381.06;5061402;28;20227;-71
2021/05/06 08:59:04;;;;;;;3.70;2.57;;;;;;;7.26;69.23;97384.72;5063015;28;20203;-71
2021/05/06 09:01:32;;;;;;;4.90;2.77;;;;;;;7.29;71.39;97384.41;5059560;28;20306;-72
2021/05/06 09:03:59;;;;;;;6.00;2.90;;;;;;;7.24;72.02;97379.59;5064487;28;20238;-71
2021/05/06 09:06:26;;;;;;;2.60;2.40;;;;;;;7.12;70.94;97390.56;5056880;28;20202;-70
2021/05/06 09:08:56;;;;;;;3.57;2.73;;;;;;;7.05;72.06;97390.38;5058806;28;20242;-72
2021/05/06 09:11:30;;;;;;;5.00;3.00;;;;;;;7.11;73.73;97389.75;5068055;28;20217;-71
2021/05/06 09:14:04;;;;;;;3.73;2.50;;;;;;;7.08;73.19;97387.44;5063253;28;20745;-72
2021/05/06 09:16:36;;;;;;;3.93;2.97;;;;;;;7.12;75.63;97380.03;5060501;28;20254;-71
2021/05/06 09:19:08;;;;;;;3.23;2.50;;;;;;;7.12;77.97;97370.31;5055471;28;20206;-69
2021/05/06 09:21:36;;;;;;;2.53;2.33;;;;;;;7.03;78.20;97380.00;5055176;28;20206;-70
2021/05/06 09:24:16;;;;;;;3.77;3.30;;;;;;;6.88;78.84;97377.09;5063385;28;20227;-72
2021/05/06 09:26:43;;;;;;;3.33;2.47;;;;;;;6.96;79.45;97368.44;5057491;28;20203;-71
2021/05/06 09:29:11;;;;;;;2.80;2.60;;;;;;;7.19;80.47;97355.53;5063441;28;20207;-70
2021/05/06 09:31:40;;;;;;;3.37;3.07;;;;;;;7.51;80.13;97354.00;5058675;28;20651;-71
2021/05/06 09:34:09;;;;;;;4.00;2.63;;;;;;;7.63;77.25;97346.63;5060752;28;20225;-70
2021/05/06 09:36:36;;;;;;;2.97;2.63;;;;;;;7.58;74.73;97340.16;5057320;28;20238;-71
2021/05/06 09:39:05;;;;;;;3.93;2.90;;;;;;;7.64;75.39;97342.16;5067176;28;20202;-72
2021/05/06 09:41:33;;;;;;;3.27;2.97;;;;;;;7.64;74.30;97336.88;5057494;28;20530;-70
2021/05/06 09:44:12;;;;;;;4.00;3.00;;;;;;;7.74;75.66;97342.03;5061424;28;20227;-72
2021/05/06 09:46:57;;;;;;;2.53;2.30;;;;;;;8.06;75.50;97333.31;5061849;28;20675;-71
2021/05/06 09:49:26;;;;;;;2.90;2.43;;;;;;;8.05;73.37;97331.66;5055131;28;20700;-71
2021/05/06 09:51:55;;;;;;;4.17;2.33;;;;;;;8.30;73.33;97336.13;5058167;28;20207;-71
2021/05/06 09:54:24;;;;;;;3.97;2.97;;;;;;;8.40;71.36;97331.50;5056226;28;20698;-70
2021/05/06 09:56:56;;;;;;;3.30;3.00;;;;;;;8.28;71.47;97336.28;5061116;28;20230;-71
2021/05/06 09:59:25;;;;;;;3.73;2.60;;;;;;;8.44;72.33;97324.91;5060845;28;20292;-71
2021/05/06 10:01:52;;;;;;;3.73;3.07;;;;;;;8.65;70.33;97334.97;5059409;28;20213;-72
2021/05/06 10:04:22;;;;;;;3.87;2.23;;;;;;;8.48;68.16;97336.78;5061645;28;20253;-72
2021/05/06 10:07:08;;;;;;;1.67;1.57;;;;;;;8.00;68.43;97341.06;5064362;28;20195;-71
2021/05/06 10:09:53;;;;;;;3.57;2.17;;;;;;;8.13;68.12;97337.94;5059753;28;20214;-71
2021/05/06 10:12:21;;;;;;;2.53;2.20;;;;;;;7.94;68.80;97335.44;5058976;28;20582;-72
2021/05/06 10:14:50;;;;;;;2.37;2.17;;;;;;;7.97;68.55;97344.84;5061662;28;20207;-71
2021/05/06 10:17:19;;;;;;;2.30;2.20;;;;;;;8.21;68.83;97338.75;5064799;28;20354;-71
2021/05/06 10:19:47;;;;;;;2.30;2.10;;;;;;;8.21;68.78;97338.75;5057586;28;20231;-71
2021/05/06 10:22:16;;;;;;;3.13;2.23;;;;;;;8.56;68.11;97333.34;5066447;28;20199;-72
2021/05/06 10:24:44;;;;;;;2.67;2.30;;;;;;;8.53;68.37;97323.13;5060743;28;20221;-72
2021/05/06 10:27:12;;;;;;;3.23;2.47;;;;;;;8.65;69.36;97342.88;5062101;28;20203;-71
2021/05/06 10:29:40;;;;;;;2.23;2.03;;;;;;;8.45;66.91;97342.38;5060799;28;20203;-71
2021/05/06 10:32:09;;;;;;;2.67;2.47;;;;;;;8.18;67.07;97341.72;5068426;28;20693;-73
2021/05/06 10:34:37;;;;;;;4.50;2.57;;;;;;;8.03;67.33;97346.84;5057716;28;20590;-72
2021/05/06 10:37:05;;;;;;;2.73;2.07;;;;;;;8.14;67.59;97340.41;5060985;28;20226;-72
2021/05/06 10:39:39;;;;;;;3.37;3.00;;;;;;;8.03;68.15;97346.03;5063735;28;20210;-72
2021/05/06 10:42:34;;;;;;;2.90;2.43;;;;;;;7.96;69.11;97343.22;5061629;28;20658;-71
2021/05/06 10:45:03;;;;;;;2.83;2.47;;;;;;;8.26;70.35;97333.00;5046536;28;20211;-70
2021/05/06 10:47:53;;;;;;;3.73;2.43;;;;;;;8.07;68.49;97334.97;5062745;28;20237;-72
2021/05/06 10:50:23;;;;;;;2.70;2.43;;;;;;;7.99;69.79;97331.50;5062637;28;20206;-71
2021/05/06 10:52:51;;;;;;;2.50;2.30;;;;;;;7.80;68.70;97322.91;5060065;28;20226;-71
2021/05/06 10:55:43;;;;;;;2.40;2.07;;;;;;;7.90;69.24;97328.03;5064970;28;20293;-71
2021/05/06 10:58:41;;;;;;;3.03;2.60;;;;;;;7.86;68.99;97335.44;5065234;28;20209;-72
2021/05/06 11:01:22;;;;;;;5.67;2.20;;;;;;;8.11;69.88;97322.28;5060340;28;20581;-70
2021/05/06 11:04:06;;;;;;;3.07;2.23;;;;;;;8.00;70.24;97326.06;5066056;28;20230;-70
2021/05/06 11:06:39;;;;;;;3.13;2.20;;;;;;;8.17;70.25;97326.88;5057483;28;20245;-70
2021/05/06 11:09:39;;;;;;;3.87;2.80;;;;;;;8.21;69.15;97319.47;5059569;28;20203;-71
2021/05/06 11:12:34;;;;;;;3.87;2.60;;;;;;;8.03;70.06;97317.81;5056230;28;20215;-70
2021/05/06 11:15:33;;;;;;;2.83;2.60;;;;;;;8.08;69.33;97317.31;5018535;28;20206;-70
2021/05/06 11:18:05;;;;;;;2.60;2.40;;;;;;;8.08;68.72;97312.06;5056443;28;20242;-71
2021/05/06 11:20:50;;;;;;;3.13;2.87;;;;;;;7.84;69.25;97311.03;5061343;28;20230;-71
2021/05/06 11:23:32;;;;;;;3.13;2.83;;;;;;;7.89;70.14;97315.84;5059260;28;20681;-70
2021/05/06 11:26:11;;;;;;;6.23;2.80;;;;;;;7.87;70.30;97315.97;5062372;28;20207;-70
2021/05/06 11:28:43;;;;;;;2.87;2.47;;;;;;;7.91;69.49;97312.03;5061972;28;20298;-72
2021/05/06 11:31:10;;;;;;;2.87;2.57;;;;;;;7.87;70.66;97308.06;5061415;28;20682;-71
2021/05/06 11:33:37;;;;;;;3.73;2.77;;;;;;;7.99;71.32;97305.13;5063273;28;20230;-71
2021/05/06 11:36:07;;;;;;;3.00;2.30;;;;;;;8.01;69.36;97297.88;5061518;28;20797;-72
2021/05/06 11:38:50;;;;;;;4.30;2.67;;;;;;;7.77;68.78;97289.78;5061188;28;20301;-72
2021/05/06 11:41:21;;;;;;;2.67;2.47;;;;;;;7.90;68.96;97296.38;5063436;28;20215;-72
2021/05/06 11:43:50;;;;;;;5.10;2.70;;;;;;;7.89;68.79;97290.25;5062348;28;20222;-71
2021/05/06 11:46:18;;;;;;;4.27;2.67;;;;;;;7.82;68.35;97294.53;5057077;28;20212;-72
2021/05/06 11:48:47;;;;;;;3.97;2.67;;;;;;;7.88;69.31;97290.44;5059023;28;20203;-72
2021/05/06 11:51:25;;;;;;;2.33;2.13;;;;;;;7.89;68.83;97300.00;5062276;28;20306;-71
2021/05/06 11:54:07;;;;;;;4.80;2.47;;;;;;;7.96;68.16;97291.28;5056980;28;20223;-71
2021/05/06 11:56:36;;;;;;;3.83;2.97;;;;;;;7.86;68.99;97277.41;5058539;28;20234;-71
2021/05/06 11:59:05;;;;;;;4.13;2.60;;;;;;;7.70;69.18;97270.28;5059583;28;20316;-72
2021/05/06 12:01:32;;;;;;;3.73;3.20;;;;;;;7.85;70.22;97273.13;5061029;28;20671;-72
2021/05/06 12:03:59;;;;;;;4.73;2.80;;;;;;;7.98;69.95;97270.00;5061972;28;20230;-72
2021/05/06 12:06:28;;;;;;;3.40;3.03;;;;;;;8.18;69.40;97272.31;5060167;28;20208;-72
2021/05/06 12:08:55;;;;;;;3.67;2.60;;;;;;;8.29;69.10;97269.31;5056414;28;20215;-70
2021/05/06 12:11:33;;;;;;;3.20;2.50;;;;;;;8.30;68.04;97260.41;5058626;28;20210;-71
2021/05/06 12:14:00;;;;;;;5.17;2.87;;;;;;;8.28;69.17;97272.94;5057062;28;20312;-71
2021/05/06 12:16:27;;;;;;;2.60;2.37;;;;;;;8.37;67.68;97271.94;5068854;28;20221;-72
2021/05/06 12:18:59;;;;;;;4.60;2.53;;;;;;;7.95;67.37;97262.41;5057385;28;20199;-71
2021/05/06 12:21:38;;;;;;;3.37;2.87;;;;;;;8.19;68.30;97261.56;5058712;28;20203;-71
2021/05/06 12:24:06;;;;;;;2.67;2.47;;;;;;;8.39;68.03;97251.47;5055188;28;20606;-72
2021/05/06 12:26:34;;;;;;;2.87;2.57;;;;;;;8.41;67.75;97240.75;5063091;28;20211;-72
2021/05/06 12:29:02;;;;;;;6.20;2.90;;;;;;;8.25;67.32;97247.69;5062453;28;20211;-72
2021/05/06 12:31:29;;;;;;;4.50;2.33;;;;;;;8.15;68.44;97236.50;5057487;28;20229;-71
2021/05/06 12:33:56;;;;;;;3.90;2.60;;;;;;;8.30;68.70;97223.44;5059896;28;20879;-72
2021/05/06 12:36:24;;;;;;;6.90;2.80;;;;;;;8.29;69.33;97229.72;5057334;28;20234;-71
2021/05/06 12:38:52;;;;;;;3.10;2.80;;;;;;;8.20;69.16;97230.72;5065033;28;20655;-72
2021/05/06 12:41:19;;;;;;;4.83;3.00;;;;;;;8.13;69.56;97229.72;5056391;28;20679;-71
2021/05/06 12:43:49;;;;;;;5.93;2.53;;;;;;;8.13;69.74;97230.56;5063426;28;20327;-71
2021/05/06 12:46:21;;;;;;;3.10;2.90;;;;;;;7.91;69.86;97226.78;5058536;28;20584;-71
2021/05/06 12:48:54;;;;;;;3.07;2.87;;;;;;;7.94;69.57;97231.72;5060066;28;20213;-72
2021/05/06 12:51:27;;;;;;;3.83;2.87;;;;;;;7.80;69.67;97228.78;5057384;28;20202;-72
2021/05/06 12:54:00;;;;;;;3.30;2.43;;;;;;;7.78;69.31;97225.50;5055374;28;20598;-71
2021/05/06 12:56:28;;;;;;;2.80;2.50;;;;;;;7.73;71.03;97224.31;5061996;28;20226;-72
2021/05/06 12:58:56;;;;;;;2.97;2.60;;;;;;;7.69;69.84;97218.53;5058103;28;20196;-72
2021/05/06 13:01:33;;;;;;;3.70;2.80;;;;;;;7.77;70.50;97213.28;5062578;28;20671;-72
2021/05/06 13:04:02;;;;;;;4.80;2.97;;;;;;;7.87;69.92;97212.28;5058931;28;20226;-69
2021/05/06 13:06:34;;;;;;;3.60;2.87;;;;;;;7.96;69.39;97212.13;5057226;28;20209;-71
2021/05/06 13:09:01;;;;;;;3.23;2.93;;;;;;;7.86;69.65;97194.81;5056018;28;20630;-70
2021/05/06 13:11:29;;;;;;;5.50;3.30;;;;;;;7.99;70.55;97197.75;5062607;28;20701;-72
2021/05/06 13:13:57;;;;;;;2.90;2.70;;;;;;;8.06;70.32;97197.91;5055102;28;20735;-73
2021/05/06 13:16:42;;;;;;;2.90;2.33;;;;;;;8.11;69.95;97190.31;5065737;28;20651;-71
2021/05/06 13:19:11;;;;;;;3.40;3.10;;;;;;;8.16;70.54;97179.28;5058153;28;20213;-72
2021/05/06 13:21:46;;;;;;;6.13;2.90;;;;;;;8.34;69.67;97176.41;5054640;28;20675;-72
2021/05/06 13:24:13;;;;;;;3.30;3.00;;;;;;;8.38;69.09;97167.16;5051352;28;20720;-71
2021/05/06 13:26:42;;;;;;;4.00;2.90;;;;;;;8.49;68.70;97172.09;5056571;28;20250;-72
2021/05/06 13:29:14;;;;;;;3.97;2.53;;;;;;;8.50;68.07;97160.53;5059455;28;20575;-71
2021/05/06 13:31:43;;;;;;;2.87;2.67;;;;;;;8.46;67.73;97158.38;5054725;28;20204;-70
2021/05/06 13:34:13;;;;;;;3.87;3.07;;;;;;;8.10;68.79;97160.44;5068452;28;20214;-73
2021/05/06 13:36:42;;;;;;;4.37;2.80;;;;;;;8.03;69.26;97162.13;5057212;28;21493;-72
2021/05/06 13:39:10;;;;;;;3.13;2.87;;;;;;;8.19;69.70;97149.91;5066676;28;20207;-72
2021/05/06 13:41:39;;;;;;;3.43;3.13;;;;;;;8.34;68.88;97148.19;5058578;28;20664;-72
2021/05/06 13:44:08;;;;;;;3.13;2.80;;;;;;;8.26;68.25;97143.75;5060042;28;20587;-71
2021/05/06 13:46:44;;;;;;;4.93;2.67;;;;;;;8.30;69.38;97140.75;5059190;28;20205;-73
2021/05/06 13:49:12;;;;;;;2.87;2.63;;;;;;;8.24;70.54;97139.66;5063667;28;20263;-72
2021/05/06 13:51:39;;;;;;;4.53;2.60;;;;;;;8.11;70.78;97133.06;5064205;28;20568;-73
2021/05/06 13:54:06;;;;;;;3.17;2.40;;;;;;;8.29;71.31;97134.69;5063915;28;20739;-73
2021/05/06 13:56:34;;;;;;;3.77;3.47;;;;;;;8.41;71.18;97135.13;5062509;28;20222;-72
2021/05/06 13:59:01;;;;;;;4.10;3.60;;;;;;;8.62;70.83;97131.09;5060826;28;20385;-73
2021/05/06 14:01:28;;;;;;;4.17;3.03;;;;;;;8.50;72.33;97128.00;5062690;28;20620;-71
2021/05/06 14:03:57;;;;;;;3.67;2.67;;;;;;;8.40;73.91;97123.72;5064860;28;20223;-72
2021/05/06 14:06:24;;;;;;;3.33;3.03;;;;;;;8.18;73.60;97112.09;5064120;28;20797;-72
2021/05/06 14:08:51;;;;;;;3.57;2.93;;;;;;;8.25;73.03;97104.34;5057405;28;20233;-74
2021/05/06 14:11:18;;;;;;;3.23;2.77;;;;;;;8.19;74.42;97102.38;5064106;28;20211;-73
2021/05/06 14:14:00;;;;;;;5.57;3.57;;;;;;;8.36;74.30;97103.16;5059311;28;20235;-71
2021/05/06 14:16:27;;;;;;;3.00;2.70;;;;;;;8.26;73.85;97093.59;5062063;28;20222;-72
2021/05/06 14:18:54;;;;;;;3.53;3.17;;;;;;;8.33;74.71;97099.03;5057740;28;20214;-73
2021/05/06 14:21:23;;;;;;;4.37;3.40;;;;;;;8.66;74.37;97098.91;5058338;28;20214;-72
2021/05/06 14:23:51;;;;;;;4.20;3.80;;;;;;;8.59;74.06;97089.19;5057224;28;20314;-73
2021/05/06 14:26:19;;;;;;;6.57;3.50;;;;;;;8.52;77.16;97078.50;5062799;28;20204;-73
2021/05/06 14:28:46;;;;;;;5.03;3.67;;;;;;;8.46;79.11;97072.06;5017762;28;20729;-72
2021/05/06 14:31:13;;;;;;;6.60;3.50;;;;;;;8.26;82.46;97071.66;5020543;28;20215;-72